sensor_id;sensor_type;location;lat;lon;timestamp;temperature;humidity
46976;DHT22;32724;51.094;6.996;2022-11-15T00:01:35;10.90;99.90
46976;DHT22;32724;51.094;6.996;2022-11-15T00:04:03;10.80;99.90
46976;DHT22;32724;51.094;6.996;2022-11-15T00:06:28;10.60;99.90
46976;DHT22;32724;51.094;6.996;2022-11-15T00:08:54;10.70;99.90
46976;DHT22;32724;51.094;6.996;2022-11-15T00:11:19;10.80;99.90
46976;DHT22;32724;51.094;6.996;2022-11-15T00:13:45;10.70;99.90
46976;DHT22;32724;51.094;6.996;2022-11-15T00:16:10;10.70;99.90
46976;DHT22;32724;51.094;6.996;2022-11-15T00:18:36;10.70;99.90
46976;DHT22;32724;51.094;6.996;2022-11-15T00:21:03;10.80;99.90
46976;DHT22;32724;51.094;6.996;2022-11-15T00:23:29;10.90;99.90
46976;DHT22;32724;51.094;6.996;2022-11-15T00:25:55;11.10;99.90
46976;DHT22;32724;51.094;6.996;2022-11-15T00:28:20;11.20;99.90
46976;DHT22;32724;51.094;6.996;2022-11-15T00:30:46;11.20;99.90
46976;DHT22;32724;51.094;6.996;2022-11-15T00:33:11;11.20;99.90
46976;DHT22;32724;51.094;6.996;2022-11-15T00:35:37;11.20;99.90
46976;DHT22;32724;51.094;6.996;2022-11-15T00:38:02;11.20;99.90
46976;DHT22;32724;51.094;6.996;2022-11-15T00:40:28;11.30;99.90
46976;DHT22;32724;51.094;6.996;2022-11-15T00:42:53;11.30;99.90
46976;DHT22;32724;51.094;6.996;2022-11-15T00:45:19;11.30;99.90
46976;DHT22;32724;51.094;6.996;2022-11-15T00:47:45;11.30;99.90
46976;DHT22;32724;51.094;6.996;2022-11-15T00:50:11;11.30;99.90
46976;DHT22;32724;51.094;6.996;2022-11-15T00:52:37;11.30;99.90
46976;DHT22;32724;51.094;6.996;2022-11-15T00:55:02;11.40;99.90
46976;DHT22;32724;51.094;6.996;2022-11-15T00:57:28;11.30;99.90
46976;DHT22;32724;51.094;6.996;2022-11-15T00:59:53;11.20;99.90
46976;DHT22;32724;51.094;6.996;2022-11-15T01:02:18;11.10;99.90
46976;DHT22;32724;51.094;6.996;2022-11-15T01:04:44;11.30;99.90
46976;DHT22;32724;51.094;6.996;2022-11-15T01:07:09;11.20;99.90
46976;DHT22;32724;51.094;6.996;2022-11-15T01:09:35;11.10;99.90
46976;DHT22;32724;51.094;6.996;2022-11-15T01:12:00;11.10;99.90
46976;DHT22;32724;51.094;6.996;2022-11-15T01:14:27;11.00;99.90
46976;DHT22;32724;51.094;6.996;2022-11-15T01:16:52;11.00;99.90
46976;DHT22;32724;51.094;6.996;2022-11-15T01:19:18;11.10;99.90
46976;DHT22;32724;51.094;6.996;2022-11-15T01:21:43;11.30;99.90
46976;DHT22;32724;51.094;6.996;2022-11-15T01:24:11;11.40;99.90
46976;DHT22;32724;51.094;6.996;2022-11-15T01:26:37;11.50;99.90
46976;DHT22;32724;51.094;6.996;2022-11-15T01:29:03;11.50;99.90
46976;DHT22;32724;51.094;6.996;2022-11-15T01:31:28;11.60;99.90
46976;DHT22;32724;51.094;6.996;2022-11-15T01:33:53;11.60;99.90
46976;DHT22;32724;51.094;6.996;2022-11-15T01:36:20;11.60;99.90
46976;DHT22;32724;51.094;6.996;2022-11-15T01:38:47;11.70;99.90
46976;DHT22;32724;51.094;6.996;2022-11-15T01:41:16;11.70;99.90
46976;DHT22;32724;51.094;6.996;2022-11-15T01:43:42;11.70;99.90
46976;DHT22;32724;51.094;6.996;2022-11-15T01:48:33;11.70;99.90
46976;DHT22;32724;51.094;6.996;2022-11-15T01:50:59;11.70;99.90
46976;DHT22;32724;51.094;6.996;2022-11-15T01:53:26;11.70;99.90
46976;DHT22;32724;51.094;6.996;2022-11-15T01:55:52;11.70;99.90
46976;DHT22;32724;51.094;6.996;2022-11-15T01:58:18;11.70;99.90
46976;DHT22;32724;51.094;6.996;2022-11-15T02:00:43;11.50;99.90
46976;DHT22;32724;51.094;6.996;2022-11-15T02:03:09;11.40;99.90
46976;DHT22;32724;51.094;6.996;2022-11-15T02:05:35;11.40;99.90
46976;DHT22;32724;51.094;6.996;2022-11-15T02:08:01;11.30;99.90
46976;DHT22;32724;51.094;6.996;2022-11-15T02:10:27;11.30;99.90
46976;DHT22;32724;51.094;6.996;2022-11-15T02:12:52;11.30;99.90
46976;DHT22;32724;51.094;6.996;2022-11-15T02:15:18;11.50;99.90
46976;DHT22;32724;51.094;6.996;2022-11-15T02:17:48;11.60;99.90
46976;DHT22;32724;51.094;6.996;2022-11-15T02:33:01;11.90;99.90
46976;DHT22;32724;51.094;6.996;2022-11-15T02:35:30;11.90;99.90
46976;DHT22;32724;51.094;6.996;2022-11-15T02:38:04;11.90;99.90
46976;DHT22;32724;51.094;6.996;2022-11-15T02:43:05;12.00;99.90
46976;DHT22;32724;51.094;6.996;2022-11-15T02:45:53;12.00;99.90
46976;DHT22;32724;51.094;6.996;2022-11-15T02:48:21;12.00;99.90
46976;DHT22;32724;51.094;6.996;2022-11-15T02:50:48;12.00;99.90
46976;DHT22;32724;51.094;6.996;2022-11-15T02:53:14;12.00;99.90
46976;DHT22;32724;51.094;6.996;2022-11-15T02:55:46;12.00;99.90
46976;DHT22;32724;51.094;6.996;2022-11-15T03:00:51;11.60;99.90
46976;DHT22;32724;51.094;6.996;2022-11-15T03:03:36;11.40;99.90
46976;DHT22;32724;51.094;6.996;2022-11-15T03:06:14;11.40;99.90
46976;DHT22;32724;51.094;6.996;2022-11-15T03:11:47;11.40;99.90
46976;DHT22;32724;51.094;6.996;2022-11-15T03:14:18;11.50;99.90
46976;DHT22;32724;51.094;6.996;2022-11-15T03:21:36;11.80;99.90
46976;DHT22;32724;51.094;6.996;2022-11-15T03:24:03;11.80;99.90
46976;DHT22;32724;51.094;6.996;2022-11-15T03:26:29;11.80;99.90
46976;DHT22;32724;51.094;6.996;2022-11-15T03:28:56;11.90;99.90
46976;DHT22;32724;51.094;6.996;2022-11-15T03:31:24;11.90;99.90
46976;DHT22;32724;51.094;6.996;2022-11-15T03:34:11;11.90;99.90
46976;DHT22;32724;51.094;6.996;2022-11-15T03:36:38;11.90;99.90
46976;DHT22;32724;51.094;6.996;2022-11-15T03:39:05;11.90;99.90
46976;DHT22;32724;51.094;6.996;2022-11-15T03:41:43;11.90;99.90
46976;DHT22;32724;51.094;6.996;2022-11-15T03:47:01;12.00;99.90
46976;DHT22;32724;51.094;6.996;2022-11-15T03:49:29;12.00;99.90
46976;DHT22;32724;51.094;6.996;2022-11-15T03:51:57;12.00;99.90
46976;DHT22;32724;51.094;6.996;2022-11-15T03:54:23;12.00;99.90
46976;DHT22;32724;51.094;6.996;2022-11-15T03:56:48;12.00;99.90
46976;DHT22;32724;51.094;6.996;2022-11-15T03:59:14;11.80;99.90
46976;DHT22;32724;51.094;6.996;2022-11-15T04:01:39;11.70;99.90
46976;DHT22;32724;51.094;6.996;2022-11-15T04:04:05;11.60;99.90
46976;DHT22;32724;51.094;6.996;2022-11-15T04:06:30;11.60;99.90
46976;DHT22;32724;51.094;6.996;2022-11-15T04:08:55;11.60;99.90
46976;DHT22;32724;51.094;6.996;2022-11-15T04:11:21;11.60;99.90
46976;DHT22;32724;51.094;6.996;2022-11-15T04:13:46;11.50;99.90
46976;DHT22;32724;51.094;6.996;2022-11-15T04:16:12;11.40;99.90
46976;DHT22;32724;51.094;6.996;2022-11-15T04:18:37;11.30;99.90
46976;DHT22;32724;51.094;6.996;2022-11-15T04:21:03;11.30;99.90
46976;DHT22;32724;51.094;6.996;2022-11-15T04:23:47;11.30;99.90
46976;DHT22;32724;51.094;6.996;2022-11-15T04:26:31;11.50;99.90
46976;DHT22;32724;51.094;6.996;2022-11-15T04:28:56;11.60;99.90
46976;DHT22;32724;51.094;6.996;2022-11-15T04:31:57;11.80;99.90
46976;DHT22;32724;51.094;6.996;2022-11-15T04:34:23;11.90;99.90
46976;DHT22;32724;51.094;6.996;2022-11-15T04:36:48;12.00;99.90
46976;DHT22;32724;51.094;6.996;2022-11-15T04:39:32;12.00;99.90
46976;DHT22;32724;51.094;6.996;2022-11-15T04:41:58;12.00;99.90
46976;DHT22;32724;51.094;6.996;2022-11-15T04:44:23;12.00;99.90
46976;DHT22;32724;51.094;6.996;2022-11-15T04:46:48;12.10;99.90
46976;DHT22;32724;51.094;6.996;2022-11-15T04:49:14;12.10;99.90
46976;DHT22;32724;51.094;6.996;2022-11-15T04:51:39;12.20;99.90
46976;DHT22;32724;51.094;6.996;2022-11-15T04:54:05;12.20;99.90
46976;DHT22;32724;51.094;6.996;2022-11-15T04:56:30;12.20;99.90
46976;DHT22;32724;51.094;6.996;2022-11-15T04:58:56;12.20;99.90
46976;DHT22;32724;51.094;6.996;2022-11-15T05:01:21;12.20;99.90
46976;DHT22;32724;51.094;6.996;2022-11-15T05:03:47;12.20;99.90
46976;DHT22;32724;51.094;6.996;2022-11-15T05:06:31;12.20;99.90
46976;DHT22;32724;51.094;6.996;2022-11-15T05:08:56;12.20;99.90
46976;DHT22;32724;51.094;6.996;2022-11-15T05:11:22;11.90;99.90
46976;DHT22;32724;51.094;6.996;2022-11-15T05:13:47;11.80;99.90
46976;DHT22;32724;51.094;6.996;2022-11-15T05:16:13;11.70;99.90
46976;DHT22;32724;51.094;6.996;2022-11-15T05:18:38;11.70;99.90
46976;DHT22;32724;51.094;6.996;2022-11-15T05:21:08;11.80;99.90
46976;DHT22;32724;51.094;6.996;2022-11-15T05:23:34;11.90;99.90
46976;DHT22;32724;51.094;6.996;2022-11-15T05:25:59;12.00;99.90
46976;DHT22;32724;51.094;6.996;2022-11-15T05:28:25;12.10;99.90
46976;DHT22;32724;51.094;6.996;2022-11-15T05:30:50;12.20;99.90
46976;DHT22;32724;51.094;6.996;2022-11-15T05:33:16;12.10;99.90
46976;DHT22;32724;51.094;6.996;2022-11-15T05:35:42;12.20;99.90
46976;DHT22;32724;51.094;6.996;2022-11-15T05:38:11;12.20;99.90
46976;DHT22;32724;51.094;6.996;2022-11-15T05:40:36;12.30;99.90
46976;DHT22;32724;51.094;6.996;2022-11-15T05:43:02;12.30;99.90
46976;DHT22;32724;51.094;6.996;2022-11-15T05:45:29;12.30;99.90
46976;DHT22;32724;51.094;6.996;2022-11-15T05:47:56;12.30;99.90
46976;DHT22;32724;51.094;6.996;2022-11-15T05:50:23;12.30;99.90
46976;DHT22;32724;51.094;6.996;2022-11-15T05:52:49;12.30;99.90
46976;DHT22;32724;51.094;6.996;2022-11-15T05:55:15;12.30;99.90
46976;DHT22;32724;51.094;6.996;2022-11-15T05:57:41;12.30;99.90
46976;DHT22;32724;51.094;6.996;2022-11-15T06:00:06;12.30;99.90
46976;DHT22;32724;51.094;6.996;2022-11-15T06:02:35;12.30;99.90
46976;DHT22;32724;51.094;6.996;2022-11-15T06:05:00;12.30;99.90
46976;DHT22;32724;51.094;6.996;2022-11-15T06:07:26;12.30;99.90
46976;DHT22;32724;51.094;6.996;2022-11-15T06:09:51;12.20;99.90
46976;DHT22;32724;51.094;6.996;2022-11-15T06:12:17;11.90;99.90
46976;DHT22;32724;51.094;6.996;2022-11-15T06:14:42;11.80;99.90
46976;DHT22;32724;51.094;6.996;2022-11-15T06:17:07;11.70;99.90
46976;DHT22;32724;51.094;6.996;2022-11-15T06:19:33;11.60;99.90
46976;DHT22;32724;51.094;6.996;2022-11-15T06:21:59;11.60;99.90
46976;DHT22;32724;51.094;6.996;2022-11-15T06:24:24;11.50;99.90
46976;DHT22;32724;51.094;6.996;2022-11-15T06:26:50;11.50;99.90
46976;DHT22;32724;51.094;6.996;2022-11-15T06:29:15;11.50;99.90
46976;DHT22;32724;51.094;6.996;2022-11-15T06:31:41;11.50;99.90
46976;DHT22;32724;51.094;6.996;2022-11-15T06:34:06;11.50;99.90
46976;DHT22;32724;51.094;6.996;2022-11-15T06:36:34;11.50;99.90
46976;DHT22;32724;51.094;6.996;2022-11-15T06:38:59;11.40;99.90
46976;DHT22;32724;51.094;6.996;2022-11-15T06:41:25;11.40;99.90
46976;DHT22;32724;51.094;6.996;2022-11-15T06:43:50;11.30;99.90
46976;DHT22;32724;51.094;6.996;2022-11-15T06:46:16;11.30;99.90
46976;DHT22;32724;51.094;6.996;2022-11-15T06:48:41;11.30;99.90
46976;DHT22;32724;51.094;6.996;2022-11-15T06:51:07;11.20;99.90
46976;DHT22;32724;51.094;6.996;2022-11-15T06:53:33;11.20;99.90
46976;DHT22;32724;51.094;6.996;2022-11-15T06:55:59;11.20;99.90
46976;DHT22;32724;51.094;6.996;2022-11-15T06:58:25;11.10;99.90
46976;DHT22;32724;51.094;6.996;2022-11-15T07:00:51;11.20;99.90
46976;DHT22;32724;51.094;6.996;2022-11-15T07:03:16;11.20;99.90
46976;DHT22;32724;51.094;6.996;2022-11-15T07:05:42;11.30;99.90
46976;DHT22;32724;51.094;6.996;2022-11-15T07:08:15;11.30;99.90
46976;DHT22;32724;51.094;6.996;2022-11-15T07:10:40;11.20;99.90
46976;DHT22;32724;51.094;6.996;2022-11-15T07:13:06;11.10;99.90
46976;DHT22;32724;51.094;6.996;2022-11-15T07:15:31;11.10;99.90
46976;DHT22;32724;51.094;6.996;2022-11-15T07:17:59;11.00;99.90
46976;DHT22;32724;51.094;6.996;2022-11-15T07:20:31;11.00;99.90
46976;DHT22;32724;51.094;6.996;2022-11-15T07:23:03;11.00;99.90
46976;DHT22;32724;51.094;6.996;2022-11-15T07:25:29;10.90;99.90
46976;DHT22;32724;51.094;6.996;2022-11-15T07:27:58;11.00;99.90
46976;DHT22;32724;51.094;6.996;2022-11-15T07:30:24;11.00;99.90
46976;DHT22;32724;51.094;6.996;2022-11-15T07:32:57;11.00;99.90
46976;DHT22;32724;51.094;6.996;2022-11-15T07:35:23;11.00;99.90
46976;DHT22;32724;51.094;6.996;2022-11-15T07:37:58;11.00;99.90
46976;DHT22;32724;51.094;6.996;2022-11-15T07:40:24;11.00;99.90
46976;DHT22;32724;51.094;6.996;2022-11-15T07:42:50;11.10;99.90
46976;DHT22;32724;51.094;6.996;2022-11-15T07:45:19;11.10;99.90
46976;DHT22;32724;51.094;6.996;2022-11-15T07:47:45;11.10;99.90
46976;DHT22;32724;51.094;6.996;2022-11-15T07:50:12;11.10;99.90
46976;DHT22;32724;51.094;6.996;2022-11-15T07:52:38;11.10;99.90
46976;DHT22;32724;51.094;6.996;2022-11-15T07:55:03;11.10;99.90
46976;DHT22;32724;51.094;6.996;2022-11-15T07:57:29;11.10;99.90
46976;DHT22;32724;51.094;6.996;2022-11-15T07:59:54;11.10;99.90
46976;DHT22;32724;51.094;6.996;2022-11-15T08:02:20;11.20;99.90
46976;DHT22;32724;51.094;6.996;2022-11-15T08:04:45;11.20;99.90
46976;DHT22;32724;51.094;6.996;2022-11-15T08:07:11;11.30;99.90
46976;DHT22;32724;51.094;6.996;2022-11-15T08:09:36;11.10;99.90
46976;DHT22;32724;51.094;6.996;2022-11-15T08:12:02;11.00;99.90
46976;DHT22;32724;51.094;6.996;2022-11-15T08:14:27;10.90;99.90
46976;DHT22;32724;51.094;6.996;2022-11-15T08:16:54;10.90;99.90
46976;DHT22;32724;51.094;6.996;2022-11-15T08:19:19;11.00;99.90
46976;DHT22;32724;51.094;6.996;2022-11-15T08:21:45;10.90;99.90
46976;DHT22;32724;51.094;6.996;2022-11-15T08:24:10;10.90;99.90
46976;DHT22;32724;51.094;6.996;2022-11-15T08:26:36;11.00;99.90
46976;DHT22;32724;51.094;6.996;2022-11-15T08:29:02;11.10;99.90
46976;DHT22;32724;51.094;6.996;2022-11-15T08:31:27;11.20;99.90
46976;DHT22;32724;51.094;6.996;2022-11-15T08:33:53;11.30;99.90
46976;DHT22;32724;51.094;6.996;2022-11-15T08:36:19;11.40;99.90
46976;DHT22;32724;51.094;6.996;2022-11-15T08:38:44;11.40;99.90
46976;DHT22;32724;51.094;6.996;2022-11-15T08:41:14;11.50;99.90
46976;DHT22;32724;51.094;6.996;2022-11-15T08:43:42;11.50;99.90
46976;DHT22;32724;51.094;6.996;2022-11-15T08:46:08;11.60;99.90
46976;DHT22;32724;51.094;6.996;2022-11-15T08:48:36;11.60;99.90
46976;DHT22;32724;51.094;6.996;2022-11-15T08:51:01;11.70;99.90
46976;DHT22;32724;51.094;6.996;2022-11-15T08:53:26;11.70;99.90
46976;DHT22;32724;51.094;6.996;2022-11-15T08:55:52;11.80;99.90
46976;DHT22;32724;51.094;6.996;2022-11-15T08:58:17;11.80;99.90
46976;DHT22;32724;51.094;6.996;2022-11-15T09:00:43;11.90;99.90
46976;DHT22;32724;51.094;6.996;2022-11-15T09:03:08;12.00;99.90
46976;DHT22;32724;51.094;6.996;2022-11-15T09:05:37;12.00;99.90
46976;DHT22;32724;51.094;6.996;2022-11-15T09:08:03;12.10;99.90
46976;DHT22;32724;51.094;6.996;2022-11-15T09:10:29;12.20;99.90
46976;DHT22;32724;51.094;6.996;2022-11-15T09:12:56;11.80;99.90
46976;DHT22;32724;51.094;6.996;2022-11-15T09:15:22;11.60;99.90
46976;DHT22;32724;51.094;6.996;2022-11-15T09:17:47;11.60;99.90
46976;DHT22;32724;51.094;6.996;2022-11-15T09:20:13;11.60;99.90
46976;DHT22;32724;51.094;6.996;2022-11-15T09:22:38;11.70;99.90
46976;DHT22;32724;51.094;6.996;2022-11-15T09:25:04;11.70;99.90
46976;DHT22;32724;51.094;6.996;2022-11-15T09:27:30;11.90;99.90
46976;DHT22;32724;51.094;6.996;2022-11-15T09:29:55;12.20;99.90
46976;DHT22;32724;51.094;6.996;2022-11-15T09:32:21;12.40;99.90
46976;DHT22;32724;51.094;6.996;2022-11-15T09:34:48;12.60;99.90
46976;DHT22;32724;51.094;6.996;2022-11-15T09:37:14;12.70;99.90
46976;DHT22;32724;51.094;6.996;2022-11-15T09:39:39;12.80;99.90
46976;DHT22;32724;51.094;6.996;2022-11-15T09:42:12;12.90;99.90
46976;DHT22;32724;51.094;6.996;2022-11-15T09:44:42;13.10;99.90
46976;DHT22;32724;51.094;6.996;2022-11-15T09:47:23;13.10;99.90
46976;DHT22;32724;51.094;6.996;2022-11-15T09:49:51;13.20;99.90
46976;DHT22;32724;51.094;6.996;2022-11-15T09:52:17;13.30;99.90
46976;DHT22;32724;51.094;6.996;2022-11-15T09:54:45;13.30;99.90
46976;DHT22;32724;51.094;6.996;2022-11-15T09:57:12;13.40;99.90
46976;DHT22;32724;51.094;6.996;2022-11-15T09:59:42;13.40;99.90
46976;DHT22;32724;51.094;6.996;2022-11-15T10:04:35;13.40;99.90
46976;DHT22;32724;51.094;6.996;2022-11-15T10:09:47;13.20;99.90
46976;DHT22;32724;51.094;6.996;2022-11-15T10:12:14;13.20;99.90
46976;DHT22;32724;51.094;6.996;2022-11-15T10:14:40;13.20;99.90
46976;DHT22;32724;51.094;6.996;2022-11-15T10:17:11;13.20;99.90
46976;DHT22;32724;51.094;6.996;2022-11-15T10:19:52;13.30;99.90
46976;DHT22;32724;51.094;6.996;2022-11-15T10:22:30;13.30;99.90
46976;DHT22;32724;51.094;6.996;2022-11-15T10:27:42;12.90;99.90
46976;DHT22;32724;51.094;6.996;2022-11-15T10:30:10;12.80;99.90
46976;DHT22;32724;51.094;6.996;2022-11-15T10:32:36;12.80;99.90
46976;DHT22;32724;51.094;6.996;2022-11-15T10:35:09;12.80;99.90
46976;DHT22;32724;51.094;6.996;2022-11-15T10:37:40;13.00;99.90
46976;DHT22;32724;51.094;6.996;2022-11-15T10:40:16;13.20;99.90
46976;DHT22;32724;51.094;6.996;2022-11-15T10:42:42;13.30;99.90
46976;DHT22;32724;51.094;6.996;2022-11-15T10:45:24;13.40;99.90
46976;DHT22;32724;51.094;6.996;2022-11-15T10:47:50;13.40;99.90
46976;DHT22;32724;51.094;6.996;2022-11-15T10:50:31;13.60;99.90
46976;DHT22;32724;51.094;6.996;2022-11-15T10:52:57;13.70;99.90
46976;DHT22;32724;51.094;6.996;2022-11-15T10:55:27;13.70;99.90
46976;DHT22;32724;51.094;6.996;2022-11-15T10:57:55;13.80;99.90
46976;DHT22;32724;51.094;6.996;2022-11-15T11:05:31;13.80;99.90
46976;DHT22;32724;51.094;6.996;2022-11-15T11:08:01;13.80;99.90
46976;DHT22;32724;51.094;6.996;2022-11-15T11:10:27;13.90;99.90
46976;DHT22;32724;51.094;6.996;2022-11-15T11:12:53;14.00;99.90
46976;DHT22;32724;51.094;6.996;2022-11-15T11:15:19;13.90;99.90
46976;DHT22;32724;51.094;6.996;2022-11-15T11:18:06;13.90;99.90
46976;DHT22;32724;51.094;6.996;2022-11-15T11:21:09;14.00;99.90
46976;DHT22;32724;51.094;6.996;2022-11-15T11:29:05;13.90;99.90
46976;DHT22;32724;51.094;6.996;2022-11-15T11:31:42;13.80;99.90
46976;DHT22;32724;51.094;6.996;2022-11-15T11:36:56;13.90;99.90
46976;DHT22;32724;51.094;6.996;2022-11-15T11:39:28;13.80;99.90
46976;DHT22;32724;51.094;6.996;2022-11-15T11:44:30;13.70;99.90
46976;DHT22;32724;51.094;6.996;2022-11-15T11:47:07;13.70;99.90
46976;DHT22;32724;51.094;6.996;2022-11-15T11:52:11;13.80;99.90
46976;DHT22;32724;51.094;6.996;2022-11-15T11:57:11;13.80;99.90
46976;DHT22;32724;51.094;6.996;2022-11-15T11:59:46;13.70;99.90
46976;DHT22;32724;51.094;6.996;2022-11-15T12:02:14;13.70;99.90
46976;DHT22;32724;51.094;6.996;2022-11-15T12:04:42;13.70;99.90
46976;DHT22;32724;51.094;6.996;2022-11-15T12:09:36;13.70;99.90
46976;DHT22;32724;51.094;6.996;2022-11-15T12:14:42;13.80;99.90
46976;DHT22;32724;51.094;6.996;2022-11-15T12:17:10;13.80;99.90
46976;DHT22;32724;51.094;6.996;2022-11-15T12:19:39;13.90;99.90
46976;DHT22;32724;51.094;6.996;2022-11-15T12:22:08;13.90;99.90
46976;DHT22;32724;51.094;6.996;2022-11-15T12:24:37;14.00;99.90
46976;DHT22;32724;51.094;6.996;2022-11-15T12:27:15;14.10;99.90
46976;DHT22;32724;51.094;6.996;2022-11-15T12:29:50;14.10;99.90
46976;DHT22;32724;51.094;6.996;2022-11-15T12:32:28;14.10;99.90
46976;DHT22;32724;51.094;6.996;2022-11-15T12:34:55;14.10;99.90
46976;DHT22;32724;51.094;6.996;2022-11-15T12:45:42;14.10;99.90
46976;DHT22;32724;51.094;6.996;2022-11-15T12:58:41;14.40;99.90
46976;DHT22;32724;51.094;6.996;2022-11-15T13:01:07;14.50;99.90
46976;DHT22;32724;51.094;6.996;2022-11-15T13:03:33;14.50;99.90
46976;DHT22;32724;51.094;6.996;2022-11-15T13:05:59;14.50;99.90
46976;DHT22;32724;51.094;6.996;2022-11-15T13:08:35;14.50;99.90
46976;DHT22;32724;51.094;6.996;2022-11-15T13:11:41;14.40;99.90
46976;DHT22;32724;51.094;6.996;2022-11-15T13:13:46;14.30;99.90
46976;DHT22;32724;51.094;6.996;2022-11-15T13:16:13;14.20;99.90
46976;DHT22;32724;51.094;6.996;2022-11-15T13:18:43;14.10;99.90
46976;DHT22;32724;51.094;6.996;2022-11-15T13:21:19;14.00;99.90
46976;DHT22;32724;51.094;6.996;2022-11-15T13:24:03;14.10;99.90
46976;DHT22;32724;51.094;6.996;2022-11-15T13:26:29;14.10;99.90
46976;DHT22;32724;51.094;6.996;2022-11-15T13:28:56;14.10;99.90
46976;DHT22;32724;51.094;6.996;2022-11-15T13:33:54;13.80;99.90
46976;DHT22;32724;51.094;6.996;2022-11-15T13:36:25;13.40;99.90
46976;DHT22;32724;51.094;6.996;2022-11-15T13:38:58;13.20;99.90
46976;DHT22;32724;51.094;6.996;2022-11-15T13:41:28;13.10;99.90
46976;DHT22;32724;51.094;6.996;2022-11-15T13:43:54;13.30;99.90
46976;DHT22;32724;51.094;6.996;2022-11-15T13:46:21;13.40;99.90
46976;DHT22;32724;51.094;6.996;2022-11-15T13:49:00;13.70;99.90
46976;DHT22;32724;51.094;6.996;2022-11-15T13:51:28;13.80;99.90
46976;DHT22;32724;51.094;6.996;2022-11-15T13:53:56;13.50;99.90
46976;DHT22;32724;51.094;6.996;2022-11-15T13:56:23;13.30;99.90
46976;DHT22;32724;51.094;6.996;2022-11-15T13:58:48;13.50;99.90
46976;DHT22;32724;51.094;6.996;2022-11-15T14:01:15;13.70;99.90
46976;DHT22;32724;51.094;6.996;2022-11-15T14:03:46;13.80;99.90
46976;DHT22;32724;51.094;6.996;2022-11-15T14:06:13;13.90;99.90
46976;DHT22;32724;51.094;6.996;2022-11-15T14:11:24;14.00;99.90
46976;DHT22;32724;51.094;6.996;2022-11-15T14:16:35;14.10;99.90
46976;DHT22;32724;51.094;6.996;2022-11-15T14:19:01;14.00;99.90
46976;DHT22;32724;51.094;6.996;2022-11-15T14:21:27;14.00;99.90
46976;DHT22;32724;51.094;6.996;2022-11-15T14:23:53;14.00;99.90
46976;DHT22;32724;51.094;6.996;2022-11-15T14:26:32;13.90;99.90
46976;DHT22;32724;51.094;6.996;2022-11-15T14:29:20;13.90;99.90
46976;DHT22;32724;51.094;6.996;2022-11-15T14:31:43;13.90;99.90
46976;DHT22;32724;51.094;6.996;2022-11-15T14:34:11;13.80;99.90
46976;DHT22;32724;51.094;6.996;2022-11-15T14:36:36;13.80;99.90
46976;DHT22;32724;51.094;6.996;2022-11-15T14:39:02;13.80;99.90
46976;DHT22;32724;51.094;6.996;2022-11-15T14:41:33;13.80;99.90
46976;DHT22;32724;51.094;6.996;2022-11-15T14:43:59;13.80;99.90
46976;DHT22;32724;51.094;6.996;2022-11-15T14:46:25;13.80;99.90
46976;DHT22;32724;51.094;6.996;2022-11-15T14:48:50;13.70;99.90
46976;DHT22;32724;51.094;6.996;2022-11-15T14:51:16;13.70;99.90
46976;DHT22;32724;51.094;6.996;2022-11-15T14:53:42;13.50;99.90
46976;DHT22;32724;51.094;6.996;2022-11-15T14:56:08;13.60;99.90
46976;DHT22;32724;51.094;6.996;2022-11-15T14:58:34;13.70;99.90
46976;DHT22;32724;51.094;6.996;2022-11-15T15:00:59;13.70;99.90
46976;DHT22;32724;51.094;6.996;2022-11-15T15:03:26;13.70;99.90
46976;DHT22;32724;51.094;6.996;2022-11-15T15:05:52;13.70;99.90
46976;DHT22;32724;51.094;6.996;2022-11-15T15:10:45;13.70;99.90
46976;DHT22;32724;51.094;6.996;2022-11-15T15:13:21;13.70;99.90
46976;DHT22;32724;51.094;6.996;2022-11-15T15:15:47;13.70;99.90
46976;DHT22;32724;51.094;6.996;2022-11-15T15:18:13;13.70;99.90
46976;DHT22;32724;51.094;6.996;2022-11-15T15:20:39;13.60;99.90
46976;DHT22;32724;51.094;6.996;2022-11-15T15:23:14;13.60;99.90
46976;DHT22;32724;51.094;6.996;2022-11-15T15:25:40;13.50;99.90
46976;DHT22;32724;51.094;6.996;2022-11-15T15:28:07;13.50;99.90
46976;DHT22;32724;51.094;6.996;2022-11-15T15:30:32;13.50;99.90
46976;DHT22;32724;51.094;6.996;2022-11-15T15:32:58;13.50;99.90
46976;DHT22;32724;51.094;6.996;2022-11-15T15:35:23;13.50;99.90
46976;DHT22;32724;51.094;6.996;2022-11-15T15:37:49;13.50;99.90
46976;DHT22;32724;51.094;6.996;2022-11-15T15:40:20;13.40;99.90
46976;DHT22;32724;51.094;6.996;2022-11-15T15:42:47;13.40;99.90
46976;DHT22;32724;51.094;6.996;2022-11-15T15:45:12;13.40;99.90
46976;DHT22;32724;51.094;6.996;2022-11-15T15:47:38;13.40;99.90
46976;DHT22;32724;51.094;6.996;2022-11-15T15:50:26;13.30;99.90
46976;DHT22;32724;51.094;6.996;2022-11-15T15:52:50;13.30;99.90
46976;DHT22;32724;51.094;6.996;2022-11-15T15:55:15;13.20;99.90
46976;DHT22;32724;51.094;6.996;2022-11-15T15:57:41;13.20;99.90
46976;DHT22;32724;51.094;6.996;2022-11-15T16:00:06;13.20;99.90
46976;DHT22;32724;51.094;6.996;2022-11-15T16:02:32;13.20;99.90
46976;DHT22;32724;51.094;6.996;2022-11-15T16:04:57;13.20;99.90
46976;DHT22;32724;51.094;6.996;2022-11-15T16:07:23;13.10;99.90
46976;DHT22;32724;51.094;6.996;2022-11-15T16:09:49;13.10;99.90
46976;DHT22;32724;51.094;6.996;2022-11-15T16:12:30;13.10;99.90
46976;DHT22;32724;51.094;6.996;2022-11-15T16:14:55;13.10;99.90
46976;DHT22;32724;51.094;6.996;2022-11-15T16:17:22;12.70;99.90
46976;DHT22;32724;51.094;6.996;2022-11-15T16:19:47;12.60;99.90
46976;DHT22;32724;51.094;6.996;2022-11-15T16:22:13;12.60;99.90
46976;DHT22;32724;51.094;6.996;2022-11-15T16:24:38;12.80;99.90
46976;DHT22;32724;51.094;6.996;2022-11-15T16:27:04;13.00;99.90
46976;DHT22;32724;51.094;6.996;2022-11-15T16:29:29;13.10;99.90
46976;DHT22;32724;51.094;6.996;2022-11-15T16:31:55;13.20;99.90
46976;DHT22;32724;51.094;6.996;2022-11-15T16:34:21;13.20;99.90
46976;DHT22;32724;51.094;6.996;2022-11-15T16:36:46;13.20;99.90
46976;DHT22;32724;51.094;6.996;2022-11-15T16:39:12;13.20;99.90
46976;DHT22;32724;51.094;6.996;2022-11-15T16:41:43;13.20;99.90
46976;DHT22;32724;51.094;6.996;2022-11-15T16:44:12;13.20;99.90
46976;DHT22;32724;51.094;6.996;2022-11-15T16:46:37;13.20;99.90
46976;DHT22;32724;51.094;6.996;2022-11-15T16:49:05;13.30;99.90
46976;DHT22;32724;51.094;6.996;2022-11-15T16:51:34;13.30;99.90
46976;DHT22;32724;51.094;6.996;2022-11-15T16:53:59;13.30;99.90
46976;DHT22;32724;51.094;6.996;2022-11-15T16:58:51;13.30;99.90
46976;DHT22;32724;51.094;6.996;2022-11-15T17:01:22;13.30;99.90
46976;DHT22;32724;51.094;6.996;2022-11-15T17:03:48;13.30;99.90
46976;DHT22;32724;51.094;6.996;2022-11-15T17:06:14;13.30;99.90
46976;DHT22;32724;51.094;6.996;2022-11-15T17:08:39;13.30;99.90
46976;DHT22;32724;51.094;6.996;2022-11-15T17:11:05;13.30;99.90